Time,TemperatureF,DewpointF,PressureIn,WindDirection,WindDirectionDegrees,WindSpeedMPH,WindSpeedGustMPH,Humidity,HourlyPrecipIn,Conditions,Clouds,dailyrainin,SolarRadiationWatts/m^2,SoftwareType,DateUTC
2013-08-23 00:04:00,58.5,56.7,29.91,North,-999,0.0,0.0,94,0.00,,,0.00,0.00,pywws,2013-08-22 23:04:00,
2013-08-23 00:10:00,58.3,56.6,29.90,North,-999,0.0,0.7,94,0.00,,,0.00,0.00,pywws,2013-08-22 23:10:00,
2013-08-23 00:16:00,58.3,56.6,29.90,North,-999,0.0,0.7,94,0.00,,,0.00,0.00,pywws,2013-08-22 23:16:00,
2013-08-23 00:21:00,58.1,56.4,29.90,NW,315,0.7,1.6,94,0.00,,,0.00,0.00,pywws,2013-08-22 23:21:00,
2013-08-23 00:27:00,58.1,56.4,29.90,North,-999,0.0,0.0,94,0.00,,,0.00,0.00,pywws,2013-08-22 23:27:00,
2013-08-23 00:32:00,57.9,56.2,29.89,North,-999,0.0,0.0,94,0.00,,,0.00,0.00,pywws,2013-08-22 23:32:00,
2013-08-23 00:38:00,57.9,56.2,29.88,North,-999,0.0,0.0,94,0.00,,,0.00,0.00,pywws,2013-08-22 23:38:00,
2013-08-23 00:44:00,57.7,56.0,29.89,North,-999,0.0,0.0,94,0.00,,,0.00,0.00,pywws,2013-08-22 23:44:00,
2013-08-23 00:49:00,57.7,56.0,29.88,North,-999,0.0,0.7,94,0.00,,,0.00,0.00,pywws,2013-08-22 23:49:00,
2013-08-23 00:55:00,57.7,56.0,29.88,North,-999,0.0,0.0,94,0.00,,,0.00,0.00,pywws,2013-08-22 23:55:00,
2013-08-23 01:01:00,57.7,56.0,29.88,North,-999,0.0,0.7,94,0.00,,,0.00,0.00,pywws,2013-08-23 00:01:00,
2013-08-23 01:06:00,57.9,56.2,29.88,North,-999,0.0,2.2,94,0.00,,,0.00,0.00,pywws,2013-08-23 00:06:00,
2013-08-23 01:12:00,58.3,56.6,29.88,North,-999,0.0,0.0,94,0.00,,,0.00,0.00,pywws,2013-08-23 00:12:00,
2013-08-23 01:17:00,58.3,56.6,29.88,North,-999,0.0,0.7,94,0.00,,,0.00,0.00,pywws,2013-08-23 00:17:00,
2013-08-23 01:23:00,58.1,56.4,29.88,North,-999,0.0,0.7,94,0.00,,,0.00,0.00,pywws,2013-08-23 00:23:00,
2013-08-23 01:28:00,58.1,56.4,29.87,North,-999,0.0,0.0,94,0.00,,,0.00,0.00,pywws,2013-08-23 00:28:00,
2013-08-23 01:34:00,58.1,56.4,29.87,North,-999,0.0,0.0,94,0.00,,,0.00,0.00,pywws,2013-08-23 00:34:00,
2013-08-23 01:40:00,58.1,56.4,29.87,North,-999,0.0,1.6,94,0.00,,,0.00,0.00,pywws,2013-08-23 00:40:00,
2013-08-23 01:45:00,58.3,56.6,29.87,NW,315,0.7,2.2,94,0.00,,,0.00,0.00,pywws,2013-08-23 00:45:00,
2013-08-23 01:51:00,58.6,56.9,29.87,NW,315,4.5,6.9,94,0.00,,,0.00,0.00,pywws,2013-08-23 00:51:00,
2013-08-23 01:56:00,59.2,57.2,29.87,SW,225,2.2,5.4,93,0.00,,,0.00,0.00,pywws,2013-08-23 00:56:00,
2013-08-23 02:02:00,59.5,57.2,29.87,South,180,3.1,4.5,92,0.00,,,0.00,0.00,pywws,2013-08-23 01:02:00,
2013-08-23 02:08:00,59.5,56.6,29.87,SSW,202,6.0,8.3,90,0.00,,,0.00,0.00,pywws,2013-08-23 01:08:00,
2013-08-23 02:13:00,59.7,55.8,29.87,SSW,202,3.8,7.6,87,0.00,,,0.00,0.00,pywws,2013-08-23 01:13:00,
2013-08-23 02:19:00,60.3,55.4,29.87,NW,315,2.2,3.1,84,0.00,,,0.00,0.00,pywws,2013-08-23 01:19:00,
2013-08-23 02:24:00,60.3,55.1,29.86,SW,225,3.1,4.5,83,0.00,,,0.00,0.00,pywws,2013-08-23 01:24:00,
2013-08-23 02:30:00,60.4,54.9,29.86,SW,225,4.5,6.9,82,0.00,,,0.00,0.00,pywws,2013-08-23 01:30:00,
2013-08-23 02:36:00,60.6,54.4,29.87,SW,225,4.5,6.9,80,0.00,,,0.00,0.00,pywws,2013-08-23 01:36:00,
2013-08-23 02:41:00,60.6,53.7,29.87,WSW,248,1.6,3.1,78,0.00,,,0.00,0.00,pywws,2013-08-23 01:41:00,
2013-08-23 02:47:00,60.6,53.7,29.86,South,180,3.1,3.8,78,0.00,,,0.00,0.00,pywws,2013-08-23 01:47:00,
2013-08-23 02:52:00,60.8,53.2,29.86,South,180,4.5,6.0,76,0.00,,,0.00,0.00,pywws,2013-08-23 01:52:00,
2013-08-23 02:58:00,60.8,53.2,29.86,SW,225,8.3,12.1,76,0.00,,,0.00,0.00,pywws,2013-08-23 01:58:00,
2013-08-23 03:04:00,61.3,53.0,29.86,SE,135,3.8,8.3,74,0.00,,,0.00,0.00,pywws,2013-08-23 02:04:00,
2013-08-23 03:09:00,61.7,53.0,29.86,SSE,158,4.5,9.2,73,0.00,,,0.00,0.00,pywws,2013-08-23 02:09:00,
2013-08-23 03:15:00,61.9,53.1,29.85,SSW,202,3.1,6.0,73,0.00,,,0.00,0.00,pywws,2013-08-23 02:15:00,
2013-08-23 03:20:00,61.7,53.0,29.86,SW,225,3.1,4.5,73,0.00,,,0.00,0.00,pywws,2013-08-23 02:20:00,
2013-08-23 03:26:00,61.7,53.0,29.86,North,0,3.1,4.5,73,0.00,,,0.00,0.00,pywws,2013-08-23 02:26:00,
2013-08-23 03:32:00,61.7,53.0,29.86,West,270,1.6,4.5,73,0.00,,,0.00,0.00,pywws,2013-08-23 02:32:00,
2013-08-23 03:37:00,61.5,52.8,29.85,SW,225,0.7,3.1,73,0.00,,,0.00,0.00,pywws,2013-08-23 02:37:00,
2013-08-23 03:43:00,61.5,52.8,29.86,SE,135,0.7,2.2,73,0.00,,,0.00,0.00,pywws,2013-08-23 02:43:00,
2013-08-23 03:48:00,61.3,53.0,29.85,South,180,3.8,5.4,74,0.00,,,0.00,0.00,pywws,2013-08-23 02:48:00,
2013-08-23 03:54:00,61.3,53.0,29.85,South,180,1.6,5.4,74,0.00,,,0.00,0.00,pywws,2013-08-23 02:54:00,
2013-08-23 04:00:00,61.3,53.3,29.85,SW,225,1.6,2.2,75,0.00,,,0.00,0.00,pywws,2013-08-23 03:00:00,
2013-08-23 04:05:00,61.2,53.5,29.85,SW,225,3.8,6.0,76,0.00,,,0.00,0.00,pywws,2013-08-23 03:05:00,
2013-08-23 04:11:00,61.0,53.4,29.85,SW,225,1.6,3.1,76,0.00,,,0.00,0.00,pywws,2013-08-23 03:11:00,
2013-08-23 04:16:00,61.0,53.7,29.85,SW,225,2.2,4.5,77,0.00,,,0.00,0.00,pywws,2013-08-23 03:16:00,
2013-08-23 04:22:00,61.0,54.1,29.85,SW,225,1.6,3.1,78,0.00,,,0.00,0.00,pywws,2013-08-23 03:22:00,
2013-08-23 04:28:00,61.2,54.9,29.85,South,180,2.2,3.8,80,0.00,,,0.00,0.00,pywws,2013-08-23 03:28:00,
2013-08-23 04:33:00,61.2,55.6,29.84,SSW,202,3.1,4.5,82,0.00,,,0.00,0.00,pywws,2013-08-23 03:33:00,
2013-08-23 04:39:00,61.3,55.8,29.84,South,180,3.1,4.5,82,0.00,,,0.00,0.00,pywws,2013-08-23 03:39:00,
2013-08-23 04:44:00,61.2,55.6,29.85,South,180,1.6,3.8,82,0.00,,,0.00,0.00,pywws,2013-08-23 03:44:00,
2013-08-23 04:50:00,61.2,55.6,29.84,West,270,1.6,3.1,82,0.00,,,0.00,0.00,pywws,2013-08-23 03:50:00,
2013-08-23 04:56:00,61.2,55.6,29.85,West,270,2.2,3.1,82,0.00,,,0.00,0.00,pywws,2013-08-23 03:56:00,
2013-08-23 05:01:00,61.2,55.6,29.84,West,270,2.2,4.5,82,0.00,,,0.00,0.00,pywws,2013-08-23 04:01:00,
2013-08-23 05:03:00,61.2,55.6,29.84,West,270,2.2,4.5,82,0.00,,,0.00,0.00,pywws,2013-08-23 04:03:00,
2013-08-23 05:04:00,61.2,55.6,29.84,West,270,2.2,4.5,82,0.00,,,0.00,0.00,pywws,2013-08-23 04:04:00,
2013-08-23 05:05:00,61.2,56.0,29.84,SW,225,0.7,2.2,83,0.00,,,0.00,0.00,pywws,2013-08-23 04:05:00,
2013-08-23 05:07:00,61.2,56.0,29.84,SW,225,1.6,3.1,83,0.00,,,0.00,0.00,pywws,2013-08-23 04:07:00,
2013-08-23 05:12:00,61.2,56.0,29.84,West,270,5.4,7.6,83,0.00,,,0.00,0.00,pywws,2013-08-23 04:12:00,
2013-08-23 05:18:00,61.2,56.0,29.84,SW,225,4.5,9.2,83,0.00,,,0.00,0.00,pywws,2013-08-23 04:18:00,
2013-08-23 05:24:00,61.0,55.8,29.84,South,180,3.8,8.3,83,0.00,,,0.00,0.00,pywws,2013-08-23 04:24:00,
2013-08-23 05:29:00,61.2,56.0,29.84,East,90,3.1,6.0,83,0.00,,,0.00,0.00,pywws,2013-08-23 04:29:00,
2013-08-23 05:35:00,61.0,56.1,29.83,West,270,2.2,5.4,84,0.00,,,0.00,0.00,pywws,2013-08-23 04:35:00,
2013-08-23 05:40:00,61.2,56.3,29.83,West,270,2.2,3.1,84,0.00,,,0.00,0.00,pywws,2013-08-23 04:40:00,
2013-08-23 05:46:00,61.2,56.3,29.83,West,270,5.4,8.3,84,0.00,,,0.00,0.00,pywws,2013-08-23 04:46:00,
2013-08-23 05:52:00,61.3,56.5,29.84,West,270,1.6,3.1,84,0.00,,,0.00,0.00,pywws,2013-08-23 04:52:00,
2013-08-23 05:57:00,61.0,56.1,29.83,South,180,2.2,3.8,84,0.00,,,0.00,0.00,pywws,2013-08-23 04:57:00,
2013-08-23 06:03:00,60.8,56.3,29.83,South,180,4.5,6.9,85,0.00,,,0.00,0.00,pywws,2013-08-23 05:03:00,
2013-08-23 06:08:00,60.8,56.3,29.83,SW,225,0.7,1.6,85,0.00,,,0.00,0.00,pywws,2013-08-23 05:08:00,
2013-08-23 06:14:00,60.8,56.3,29.84,North,-999,0.0,0.7,85,0.00,,,0.00,0.49,pywws,2013-08-23 05:14:00,
2013-08-23 06:20:00,60.6,56.4,29.84,NE,45,0.7,1.6,86,0.00,,,0.00,0.44,pywws,2013-08-23 05:20:00,
2013-08-23 06:25:00,60.6,56.4,29.84,North,-999,0.0,0.0,86,0.00,,,0.00,0.64,pywws,2013-08-23 05:25:00,
2013-08-23 06:30:00,60.4,56.2,29.84,North,-999,0.0,1.6,86,0.00,,,0.00,0.44,pywws,2013-08-23 05:30:00,
2013-08-23 06:36:00,60.4,56.5,29.83,North,-999,0.0,1.6,87,0.00,,,0.00,1.68,pywws,2013-08-23 05:36:00,
2013-08-23 06:41:00,60.4,56.5,29.83,North,-999,0.0,0.7,87,0.00,,,0.00,2.22,pywws,2013-08-23 05:41:00,
2013-08-23 06:47:00,60.4,56.5,29.83,North,-999,0.0,0.0,87,0.00,,,0.00,3.26,pywws,2013-08-23 05:47:00,
2013-08-23 06:52:00,60.3,56.7,29.83,North,-999,0.0,0.7,88,0.00,,,0.00,4.30,pywws,2013-08-23 05:52:00,
2013-08-23 06:58:00,60.3,56.7,29.83,North,-999,0.0,0.7,88,0.00,,,0.00,4.84,pywws,2013-08-23 05:58:00,
2013-08-23 07:03:00,60.1,56.5,29.83,North,-999,0.0,0.7,88,0.00,,,0.00,9.31,pywws,2013-08-23 06:03:00,
2013-08-23 07:09:00,60.3,56.7,29.83,North,-999,0.0,0.0,88,0.00,,,0.00,21.97,pywws,2013-08-23 06:09:00,
2013-08-23 07:15:00,60.4,56.9,29.83,North,-999,0.0,0.0,88,0.00,,,0.00,36.13,pywws,2013-08-23 06:15:00,
2013-08-23 07:20:00,60.8,57.2,29.83,SW,225,0.7,1.6,88,0.00,,,0.00,38.07,pywws,2013-08-23 06:20:00,
2013-08-23 07:26:00,61.0,57.4,29.84,North,-999,0.0,1.6,88,0.00,,,0.00,34.32,pywws,2013-08-23 06:26:00,
2013-08-23 07:31:00,61.3,57.8,29.83,North,-999,0.0,0.7,88,0.00,,,0.00,32.62,pywws,2013-08-23 06:31:00,
2013-08-23 07:37:00,61.9,58.3,29.83,North,-999,0.0,0.0,88,0.00,,,0.00,29.08,pywws,2013-08-23 06:37:00,
2013-08-23 07:43:00,61.9,58.0,29.84,North,-999,0.0,0.7,87,0.00,,,0.00,28.37,pywws,2013-08-23 06:43:00,
2013-08-23 07:48:00,61.9,58.0,29.84,North,-999,0.0,0.7,87,0.00,,,0.00,18.18,pywws,2013-08-23 06:48:00,
2013-08-23 07:54:00,61.7,57.8,29.84,North,-999,0.0,0.7,87,0.00,,,0.00,16.93,pywws,2013-08-23 06:54:00,
2013-08-23 08:00:00,61.7,57.5,29.84,North,-999,0.0,0.7,86,0.00,,,0.00,24.75,pywws,2013-08-23 07:00:00,
2013-08-23 08:05:00,61.5,57.3,29.84,North,-999,0.0,1.6,86,0.00,,,0.00,35.53,pywws,2013-08-23 07:05:00,
2013-08-23 08:10:00,61.7,57.8,29.84,North,-999,0.0,0.7,87,0.00,,,0.00,41.36,pywws,2013-08-23 07:10:00,
2013-08-23 08:15:00,61.9,58.0,29.84,SW,225,1.6,3.1,87,0.00,,,0.00,50.70,pywws,2013-08-23 07:15:00,
2013-08-23 08:20:00,61.9,58.0,29.84,North,-999,0.0,0.7,87,0.00,,,0.00,70.05,pywws,2013-08-23 07:20:00,
2013-08-23 08:25:00,62.1,58.1,29.84,South,180,2.2,3.8,87,0.00,,,0.00,63.52,pywws,2013-08-23 07:25:00,
2013-08-23 08:31:00,62.1,58.1,29.84,ENE,68,0.7,1.6,87,0.00,,,0.00,56.72,pywws,2013-08-23 07:31:00,
2013-08-23 08:36:00,62.2,58.3,29.84,North,-999,0.0,0.7,87,0.00,,,0.00,61.62,pywws,2013-08-23 07:36:00,
2013-08-23 08:42:00,62.6,58.3,29.84,West,270,1.6,4.5,86,0.00,,,0.00,68.95,pywws,2013-08-23 07:42:00,
2013-08-23 08:47:00,62.2,58.3,29.84,SE,135,1.6,5.4,87,0.00,,,0.00,64.93,pywws,2013-08-23 07:47:00,
2013-08-23 08:53:00,62.2,58.3,29.85,North,-999,0.0,0.7,87,0.00,,,0.00,50.35,pywws,2013-08-23 07:53:00,
2013-08-23 08:59:00,62.2,58.6,29.85,North,-999,0.0,1.6,88,0.00,,,0.00,40.79,pywws,2013-08-23 07:59:00,
2013-08-23 09:04:00,62.2,58.6,29.85,North,-999,0.0,0.7,88,0.00,,,0.00,52.56,pywws,2013-08-23 08:04:00,
2013-08-23 09:10:00,62.6,58.7,29.85,North,-999,0.0,0.7,87,0.00,,,0.00,68.14,pywws,2013-08-23 08:10:00,
2013-08-23 09:16:00,62.8,58.8,29.85,North,-999,0.0,1.6,87,0.00,,,0.00,73.77,pywws,2013-08-23 08:16:00,
2013-08-23 09:21:00,63.3,59.4,29.85,North,-999,0.0,0.7,87,0.00,,,0.00,96.58,pywws,2013-08-23 08:21:00,
2013-08-23 09:27:00,63.5,59.6,29.85,North,-999,0.0,0.7,87,0.00,,,0.00,73.41,pywws,2013-08-23 08:27:00,
2013-08-23 09:32:00,63.9,59.6,29.85,North,-999,0.0,1.6,86,0.00,,,0.00,115.53,pywws,2013-08-23 08:32:00,
2013-08-23 09:38:00,64.0,59.4,29.85,SE,135,1.6,3.8,85,0.00,,,0.00,112.68,pywws,2013-08-23 08:38:00,
2013-08-23 09:43:00,64.4,60.1,29.86,North,-999,0.0,0.7,86,0.00,,,0.00,116.56,pywws,2013-08-23 08:43:00,
2013-08-23 09:49:00,65.1,60.8,29.86,North,-999,0.0,0.7,86,0.00,,,0.00,161.70,pywws,2013-08-23 08:49:00,
2013-08-23 09:55:00,66.0,61.7,29.87,North,-999,0.0,0.7,86,0.00,,,0.00,135.98,pywws,2013-08-23 08:55:00,
2013-08-23 10:00:00,66.4,61.1,29.87,North,-999,0.0,1.6,83,0.00,,,0.00,104.82,pywws,2013-08-23 09:00:00,
2013-08-23 10:06:00,66.7,61.1,29.87,North,-999,0.0,0.7,82,0.00,,,0.00,151.55,pywws,2013-08-23 09:06:00,
2013-08-23 10:11:00,67.1,60.7,29.88,West,270,0.7,2.2,80,0.00,,,0.00,145.16,pywws,2013-08-23 09:11:00,
2013-08-23 10:17:00,67.3,60.9,29.88,NW,315,0.7,1.6,80,0.00,,,0.00,125.23,pywws,2013-08-23 09:17:00,
2013-08-23 10:23:00,67.3,60.5,29.88,North,0,0.7,1.6,79,0.00,,,0.00,96.58,pywws,2013-08-23 09:23:00,
2013-08-23 10:28:00,66.9,59.5,29.89,South,180,3.8,5.4,77,0.00,,,0.00,105.13,pywws,2013-08-23 09:28:00,
2013-08-23 10:34:00,66.7,59.7,29.89,WNW,292,0.7,2.2,78,0.00,,,0.00,129.61,pywws,2013-08-23 09:34:00,
2013-08-23 10:40:00,66.9,60.2,29.89,North,-999,0.0,0.7,79,0.00,,,0.00,137.65,pywws,2013-08-23 09:40:00,
2013-08-23 10:45:00,66.9,60.2,29.90,SW,225,2.2,5.4,79,0.00,,,0.00,129.86,pywws,2013-08-23 09:45:00,
2013-08-23 10:51:00,66.6,59.8,29.89,West,270,3.1,5.4,79,0.00,,,0.00,129.61,pywws,2013-08-23 09:51:00,
2013-08-23 10:56:00,66.2,59.8,29.90,NW,315,0.7,4.5,80,0.00,,,0.00,121.53,pywws,2013-08-23 09:56:00,
2013-08-23 11:02:00,66.2,60.2,29.90,South,180,1.6,3.1,81,0.00,,,0.00,124.61,pywws,2013-08-23 10:02:00,
2013-08-23 11:07:00,66.0,60.4,29.90,SW,225,1.6,3.1,82,0.00,,,0.00,127.36,pywws,2013-08-23 10:07:00,
2013-08-23 11:13:00,66.2,60.2,29.91,ESE,112,0.7,1.6,81,0.00,,,0.00,105.13,pywws,2013-08-23 10:13:00,
2013-08-23 11:19:00,66.2,60.2,29.91,NW,315,0.7,3.1,81,0.00,,,0.00,102.71,pywws,2013-08-23 10:19:00,
2013-08-23 11:24:00,66.2,60.2,29.91,SW,225,0.7,1.6,81,0.00,,,0.00,78.48,pywws,2013-08-23 10:24:00,
2013-08-23 11:30:00,66.2,60.2,29.91,East,90,0.7,2.2,81,0.00,,,0.00,91.95,pywws,2013-08-23 10:30:00,
2013-08-23 11:35:00,66.2,60.2,29.91,North,-999,0.0,0.7,81,0.00,,,0.00,71.59,pywws,2013-08-23 10:35:00,
2013-08-23 11:41:00,66.2,60.5,29.92,NW,315,0.7,2.2,82,0.00,,,0.00,105.86,pywws,2013-08-23 10:41:00,
2013-08-23 11:47:00,66.0,60.7,29.91,NW,315,0.7,3.8,83,0.00,,,0.00,127.36,pywws,2013-08-23 10:47:00,
2013-08-23 11:52:00,66.4,60.7,29.91,North,-999,0.0,0.7,82,0.00,,,0.00,162.02,pywws,2013-08-23 10:52:00,
2013-08-23 11:58:00,66.7,60.7,29.91,North,-999,0.0,0.7,81,0.00,,,0.00,106.28,pywws,2013-08-23 10:58:00,
2013-08-23 12:03:00,66.7,60.4,29.92,SW,225,2.2,3.8,80,0.00,,,0.00,62.79,pywws,2013-08-23 11:03:00,
2013-08-23 12:09:00,66.2,59.5,29.92,North,-999,0.0,1.6,79,0.00,,,0.00,46.99,pywws,2013-08-23 11:09:00,
2013-08-23 12:15:00,65.8,59.8,29.92,NW,315,0.7,1.6,81,0.00,,,0.00,37.99,pywws,2013-08-23 11:15:00,
2013-08-23 12:20:00,65.5,59.5,29.92,North,0,2.2,7.6,81,0.00,,,0.00,27.46,pywws,2013-08-23 11:20:00,
2013-08-23 12:26:00,64.9,59.3,29.93,SW,225,2.2,3.1,82,0.00,,,0.00,21.86,pywws,2013-08-23 11:26:00,
2013-08-23 12:31:00,64.4,59.5,29.93,SW,225,2.2,5.4,84,0.00,,,0.00,35.46,pywws,2013-08-23 11:31:00,
2013-08-23 12:37:00,64.0,59.1,29.92,SSW,202,1.6,3.1,84,0.00,,,0.00,24.87,pywws,2013-08-23 11:37:00,
2013-08-23 12:43:00,63.7,58.8,29.92,SSE,158,1.6,2.2,84,0.00,,,0.00,28.56,pywws,2013-08-23 11:43:00,
2013-08-23 12:48:00,63.5,58.9,29.92,NW,315,0.7,2.2,85,0.00,,,0.00,35.05,pywws,2013-08-23 11:48:00,
2013-08-23 12:54:00,63.1,58.6,29.92,SW,225,1.6,3.1,85,0.01,,,0.01,34.71,pywws,2013-08-23 11:54:00,
2013-08-23 13:00:00,62.8,58.2,29.91,NW,315,1.6,3.1,85,0.01,,,0.01,69.23,pywws,2013-08-23 12:00:00,
2013-08-23 13:05:00,61.7,56.8,29.91,SW,225,3.8,6.0,84,0.01,,,0.01,125.23,pywws,2013-08-23 12:05:00,
2013-08-23 13:11:00,61.5,56.0,29.91,SE,135,3.1,4.5,82,0.01,,,0.01,116.10,pywws,2013-08-23 12:11:00,
2013-08-23 13:16:00,61.9,56.7,29.91,SE,135,3.1,4.5,83,0.01,,,0.01,96.58,pywws,2013-08-23 12:16:00,
2013-08-23 13:22:00,62.1,56.8,29.90,South,180,3.8,6.9,83,0.01,,,0.01,138.89,pywws,2013-08-23 12:22:00,
2013-08-23 13:27:00,62.4,56.8,29.90,SW,225,2.2,3.8,82,0.01,,,0.01,132.95,pywws,2013-08-23 12:27:00,
2013-08-23 13:32:00,62.6,56.0,29.90,West,270,2.2,4.5,79,0.01,,,0.01,105.55,pywws,2013-08-23 12:32:00,
2013-08-23 13:38:00,62.8,55.1,29.90,South,180,3.1,4.5,76,0.01,,,0.01,11.58,pywws,2013-08-23 12:38:00,
2013-08-23 13:43:00,63.1,55.4,29.90,SW,225,2.2,3.1,76,0.01,,,0.01,150.95,pywws,2013-08-23 12:43:00,
2013-08-23 13:49:00,63.7,55.6,29.89,South,180,1.6,3.8,75,0.01,,,0.01,161.42,pywws,2013-08-23 12:49:00,
2013-08-23 13:55:00,64.0,55.2,29.90,SW,225,1.6,3.1,73,0.00,,,0.01,77.40,pywws,2013-08-23 12:55:00,
2013-08-23 14:00:00,63.9,55.0,29.90,SW,225,3.8,5.4,73,0.00,,,0.01,60.52,pywws,2013-08-23 13:00:00,
2013-08-23 14:06:00,63.5,54.7,29.90,SSW,202,2.2,3.8,73,0.00,,,0.01,59.40,pywws,2013-08-23 13:06:00,
2013-08-23 14:12:00,63.3,54.5,29.90,SW,225,2.2,3.8,73,0.00,,,0.01,59.40,pywws,2013-08-23 13:12:00,
2013-08-23 14:17:00,63.1,54.3,29.89,West,270,3.1,5.4,73,0.00,,,0.01,54.03,pywws,2013-08-23 13:17:00,
2013-08-23 14:23:00,63.1,54.3,29.89,South,180,3.1,5.4,73,0.00,,,0.01,51.87,pywws,2013-08-23 13:23:00,
2013-08-23 14:28:00,63.1,54.3,29.89,South,180,0.7,1.6,73,0.00,,,0.01,77.40,pywws,2013-08-23 13:28:00,
2013-08-23 14:34:00,63.5,55.4,29.89,South,180,2.2,5.4,75,0.00,,,0.01,119.08,pywws,2013-08-23 13:34:00,
2013-08-23 14:40:00,63.7,55.6,29.89,South,180,2.2,3.8,75,0.00,,,0.01,88.07,pywws,2013-08-23 13:40:00,
2013-08-23 14:45:00,63.7,56.3,29.89,SW,225,1.6,2.2,77,0.00,,,0.01,49.19,pywws,2013-08-23 13:45:00,
2013-08-23 14:51:00,63.3,56.0,29.89,West,270,0.7,1.6,77,0.00,,,0.01,60.76,pywws,2013-08-23 13:51:00,
2013-08-23 14:56:00,63.0,56.0,29.89,North,-999,0.0,0.7,78,0.00,,,0.01,96.96,pywws,2013-08-23 13:56:00,
2013-08-23 15:02:00,63.0,56.3,29.89,South,180,2.2,3.1,79,0.02,,,0.04,70.40,pywws,2013-08-23 14:02:00,
2013-08-23 15:07:00,62.6,56.7,29.89,South,180,2.2,3.1,81,0.02,,,0.04,83.28,pywws,2013-08-23 14:07:00,
2013-08-23 15:13:00,62.6,57.0,29.89,SW,225,3.1,6.0,82,0.02,,,0.04,58.20,pywws,2013-08-23 14:13:00,
2013-08-23 15:19:00,62.4,57.5,29.89,South,180,2.2,3.1,84,0.02,,,0.04,59.40,pywws,2013-08-23 14:19:00,
2013-08-23 15:24:00,62.2,57.7,29.89,SW,225,2.2,4.5,85,0.02,,,0.04,79.96,pywws,2013-08-23 14:24:00,
2013-08-23 15:30:00,62.2,58.0,29.88,South,180,1.6,2.2,86,0.02,,,0.04,47.73,pywws,2013-08-23 14:30:00,
2013-08-23 15:36:00,62.2,58.0,29.88,NW,315,0.7,1.6,86,0.02,,,0.04,61.18,pywws,2013-08-23 14:36:00,
2013-08-23 15:41:00,62.2,58.0,29.88,South,180,1.6,3.1,86,0.02,,,0.04,43.61,pywws,2013-08-23 14:41:00,
2013-08-23 15:47:00,62.2,58.0,29.88,South,180,1.6,2.2,86,0.02,,,0.04,51.15,pywws,2013-08-23 14:47:00,
2013-08-23 15:52:00,62.2,58.0,29.88,West,270,0.7,1.6,86,0.02,,,0.04,68.14,pywws,2013-08-23 14:52:00,
2013-08-23 15:58:00,62.2,58.0,29.88,SSW,202,0.7,2.2,86,0.02,,,0.05,47.73,pywws,2013-08-23 14:58:00,
2013-08-23 16:03:00,62.2,58.0,29.88,West,270,0.7,1.6,86,0.04,,,0.07,78.10,pywws,2013-08-23 15:03:00,
2013-08-23 16:08:00,62.1,58.1,29.88,South,180,0.7,3.8,87,0.06,,,0.09,66.82,pywws,2013-08-23 15:08:00,
2013-08-23 16:14:00,61.9,58.0,29.88,North,-999,0.0,0.7,87,0.07,,,0.11,55.57,pywws,2013-08-23 15:14:00,
2013-08-23 16:20:00,61.7,58.1,29.88,West,270,0.7,1.6,88,0.08,,,0.12,57.92,pywws,2013-08-23 15:20:00,
2013-08-23 16:25:00,61.5,57.9,29.88,South,180,0.7,1.6,88,0.11,,,0.14,93.10,pywws,2013-08-23 15:25:00,
2013-08-23 16:31:00,61.7,58.4,29.88,West,270,0.7,2.2,89,0.14,,,0.18,86.21,pywws,2013-08-23 15:31:00,
2013-08-23 16:36:00,61.7,58.7,29.88,North,-999,0.0,0.7,90,0.15,,,0.19,61.18,pywws,2013-08-23 15:36:00,
2013-08-23 16:42:00,61.7,58.7,29.88,North,-999,0.0,0.0,90,0.17,,,0.20,53.29,pywws,2013-08-23 15:42:00,
2013-08-23 16:47:00,61.9,58.9,29.88,North,-999,0.0,0.0,90,0.18,,,0.21,45.77,pywws,2013-08-23 15:47:00,
2013-08-23 16:53:00,61.9,58.9,29.88,North,-999,0.0,0.7,90,0.17,,,0.21,34.95,pywws,2013-08-23 15:53:00,
2013-08-23 16:58:00,61.7,58.7,29.88,North,-999,0.0,0.7,90,0.15,,,0.21,44.22,pywws,2013-08-23 15:58:00,
2013-08-23 17:03:00,61.7,59.0,29.88,North,-999,0.0,1.6,91,0.14,,,0.21,24.43,pywws,2013-08-23 16:03:00,
2013-08-23 17:08:00,61.7,59.0,29.88,North,-999,0.0,0.0,91,0.13,,,0.22,23.33,pywws,2013-08-23 16:08:00,
2013-08-23 17:14:00,61.7,59.0,29.87,North,-999,0.0,0.0,91,0.13,,,0.22,44.00,pywws,2013-08-23 16:14:00,
2013-08-23 17:20:00,61.9,59.2,29.87,North,-999,0.0,0.0,91,0.11,,,0.22,39.72,pywws,2013-08-23 16:20:00,
2013-08-23 17:26:00,62.1,59.7,29.87,North,-999,0.0,0.0,92,0.08,,,0.22,40.71,pywws,2013-08-23 16:26:00,
2013-08-23 17:31:00,62.1,59.7,29.87,North,-999,0.0,0.0,92,0.04,,,0.22,48.07,pywws,2013-08-23 16:31:00,
2013-08-23 17:37:00,62.2,59.9,29.87,North,-999,0.0,0.0,92,0.02,,,0.22,51.05,pywws,2013-08-23 16:37:00,
2013-08-23 17:43:00,62.4,60.1,29.87,North,-999,0.0,1.6,92,0.01,,,0.22,40.07,pywws,2013-08-23 16:43:00,
2013-08-23 17:48:00,62.4,60.1,29.87,SW,225,0.7,2.2,92,0.01,,,0.22,34.08,pywws,2013-08-23 16:48:00,
2013-08-23 17:54:00,62.1,59.7,29.87,North,-999,0.0,0.0,92,0.01,,,0.22,23.33,pywws,2013-08-23 16:54:00,
2013-08-23 18:00:00,61.9,59.5,29.87,North,-999,0.0,0.0,92,0.01,,,0.22,20.79,pywws,2013-08-23 17:00:00,
2013-08-23 18:05:00,61.9,59.5,29.87,North,-999,0.0,0.0,92,0.01,,,0.22,20.92,pywws,2013-08-23 17:05:00,
2013-08-23 18:11:00,61.5,59.2,29.87,North,-999,0.0,1.6,92,0.00,,,0.22,18.61,pywws,2013-08-23 17:11:00,
2013-08-23 18:16:00,61.3,59.0,29.87,North,-999,0.0,0.7,92,0.00,,,0.22,19.66,pywws,2013-08-23 17:16:00,
2013-08-23 18:22:00,61.2,58.8,29.87,North,-999,0.0,0.0,92,0.00,,,0.22,23.06,pywws,2013-08-23 17:22:00,
2013-08-23 18:27:00,61.2,58.8,29.86,North,-999,0.0,0.7,92,0.00,,,0.22,22.53,pywws,2013-08-23 17:27:00,
2013-08-23 18:33:00,61.3,59.0,29.87,North,-999,0.0,0.0,92,0.00,,,0.22,30.82,pywws,2013-08-23 17:33:00,
2013-08-23 18:39:00,61.3,59.0,29.86,North,-999,0.0,0.0,92,0.00,,,0.22,49.63,pywws,2013-08-23 17:39:00,
2013-08-23 18:45:00,61.5,59.2,29.86,North,-999,0.0,0.0,92,0.00,,,0.22,38.52,pywws,2013-08-23 17:45:00,
2013-08-23 18:50:00,61.7,59.7,29.86,North,-999,0.0,0.0,93,0.00,,,0.22,25.69,pywws,2013-08-23 17:50:00,
2013-08-23 18:55:00,61.9,59.8,29.86,North,-999,0.0,0.0,93,0.00,,,0.22,34.32,pywws,2013-08-23 17:55:00,
2013-08-23 19:01:00,61.9,59.8,29.86,North,-999,0.0,0.7,93,0.00,,,0.22,33.78,pywws,2013-08-23 18:01:00,
2013-08-23 19:07:00,62.1,60.0,29.86,North,-999,0.0,0.0,93,0.00,,,0.22,26.05,pywws,2013-08-23 18:07:00,
2013-08-23 19:12:00,62.2,60.2,29.86,North,-999,0.0,0.0,93,0.00,,,0.22,35.12,pywws,2013-08-23 18:12:00,
2013-08-23 19:18:00,62.2,60.2,29.86,North,-999,0.0,0.0,93,0.00,,,0.22,26.42,pywws,2013-08-23 18:18:00,
2013-08-23 19:23:00,62.2,60.2,29.86,North,-999,0.0,0.0,93,0.00,,,0.22,28.04,pywws,2013-08-23 18:23:00,
2013-08-23 19:29:00,62.2,60.2,29.86,North,-999,0.0,0.0,93,0.00,,,0.22,21.61,pywws,2013-08-23 18:29:00,
2013-08-23 19:35:00,62.1,60.0,29.87,North,-999,0.0,0.0,93,0.00,,,0.22,9.22,pywws,2013-08-23 18:35:00,
2013-08-23 19:41:00,62.2,60.2,29.87,North,-999,0.0,0.0,93,0.00,,,0.22,4.84,pywws,2013-08-23 18:41:00,
2013-08-23 19:46:00,62.1,60.0,29.87,North,-999,0.0,1.6,93,0.00,,,0.22,7.69,pywws,2013-08-23 18:46:00,
2013-08-23 19:51:00,61.9,59.8,29.87,North,-999,0.0,0.7,93,0.00,,,0.22,11.63,pywws,2013-08-23 18:51:00,
2013-08-23 19:56:00,61.9,59.8,29.87,North,-999,0.0,0.7,93,0.00,,,0.22,11.53,pywws,2013-08-23 18:56:00,
2013-08-23 20:02:00,61.5,59.5,29.87,North,-999,0.0,1.6,93,0.00,,,0.22,10.13,pywws,2013-08-23 19:02:00,
2013-08-23 20:07:00,61.5,59.5,29.87,North,-999,0.0,0.7,93,0.00,,,0.22,11.03,pywws,2013-08-23 19:07:00,
2013-08-23 20:13:00,61.2,59.1,29.87,North,-999,0.0,1.6,93,0.00,,,0.22,10.97,pywws,2013-08-23 19:13:00,
2013-08-23 20:19:00,61.0,58.9,29.87,East,90,0.7,2.2,93,0.00,,,0.22,8.56,pywws,2013-08-23 19:19:00,
2013-08-23 20:24:00,60.8,58.5,29.87,NE,45,0.7,1.6,92,0.00,,,0.22,5.00,pywws,2013-08-23 19:24:00,
2013-08-23 20:30:00,60.6,58.6,29.87,South,180,1.6,3.8,93,0.00,,,0.22,2.77,pywws,2013-08-23 19:30:00,
2013-08-23 20:36:00,60.4,58.4,29.87,NNW,338,0.7,2.2,93,0.00,,,0.22,2.18,pywws,2013-08-23 19:36:00,
2013-08-23 20:41:00,60.4,58.1,29.87,SE,135,0.7,1.6,92,0.00,,,0.22,1.24,pywws,2013-08-23 19:41:00,
2013-08-23 20:46:00,60.4,57.8,29.87,South,180,0.7,2.2,91,0.00,,,0.22,0.64,pywws,2013-08-23 19:46:00,
2013-08-23 20:51:00,60.3,57.6,29.88,South,180,0.7,2.2,91,0.00,,,0.22,0.00,pywws,2013-08-23 19:51:00,
2013-08-23 20:57:00,60.3,57.6,29.88,East,90,0.7,2.2,91,0.00,,,0.22,0.00,pywws,2013-08-23 19:57:00,
2013-08-23 21:03:00,60.1,57.1,29.88,North,-999,0.0,1.6,90,0.00,,,0.22,0.00,pywws,2013-08-23 20:03:00,
2013-08-23 21:08:00,60.1,57.1,29.87,SW,225,1.6,3.1,90,0.00,,,0.22,0.00,pywws,2013-08-23 20:08:00,
2013-08-23 21:14:00,60.1,57.1,29.87,West,270,0.7,1.6,90,0.00,,,0.22,,pywws,2013-08-23 20:14:00,
2013-08-23 21:20:00,60.3,57.0,29.87,North,-999,0.0,0.7,89,0.00,,,0.22,,pywws,2013-08-23 20:20:00,
2013-08-23 21:25:00,60.3,57.0,29.87,North,-999,0.0,0.7,89,0.00,,,0.22,,pywws,2013-08-23 20:25:00,
2013-08-23 21:31:00,60.1,56.8,29.87,North,-999,0.0,0.7,89,0.00,,,0.22,,pywws,2013-08-23 20:31:00,
2013-08-23 21:36:00,60.1,56.8,29.87,North,0,2.2,4.5,89,0.00,,,0.22,,pywws,2013-08-23 20:36:00,
2013-08-23 21:42:00,60.1,56.8,29.86,NE,45,0.7,2.2,89,0.00,,,0.22,0.00,pywws,2013-08-23 20:42:00,
2013-08-23 21:48:00,60.1,56.8,29.87,SE,135,0.7,1.6,89,0.00,,,0.22,0.00,pywws,2013-08-23 20:48:00,
2013-08-23 21:53:00,59.9,56.6,29.86,North,0,2.2,3.1,89,0.00,,,0.22,,pywws,2013-08-23 20:53:00,
2013-08-23 21:59:00,59.9,56.6,29.86,NNW,338,0.7,1.6,89,0.00,,,0.22,0.00,pywws,2013-08-23 20:59:00,
2013-08-23 22:04:00,59.9,56.3,29.86,South,180,1.6,2.2,88,0.00,,,0.22,0.00,pywws,2013-08-23 21:04:00,
2013-08-23 22:10:00,60.1,56.5,29.86,East,90,1.6,3.8,88,0.00,,,0.22,,pywws,2013-08-23 21:10:00,
2013-08-23 22:16:00,60.1,56.5,29.86,NW,315,3.1,6.0,88,0.00,,,0.22,,pywws,2013-08-23 21:16:00,
2013-08-23 22:21:00,60.1,56.2,29.86,SSW,202,3.1,5.4,87,0.00,,,0.22,,pywws,2013-08-23 21:21:00,
2013-08-23 22:27:00,60.1,56.2,29.86,SW,225,2.2,3.8,87,0.00,,,0.22,,pywws,2013-08-23 21:27:00,
2013-08-23 22:32:00,60.1,55.9,29.86,NE,45,2.2,3.8,86,0.00,,,0.22,0.00,pywws,2013-08-23 21:32:00,
2013-08-23 22:38:00,59.7,55.5,29.86,SW,225,1.6,4.5,86,0.00,,,0.22,0.00,pywws,2013-08-23 21:38:00,
2013-08-23 22:44:00,59.2,55.0,29.86,SSE,158,1.6,3.8,86,0.00,,,0.22,0.00,pywws,2013-08-23 21:44:00,
2013-08-23 22:49:00,59.2,55.0,29.86,SSE,158,1.6,3.8,86,0.00,,,0.22,0.00,pywws,2013-08-23 21:49:00,
2013-08-23 23:07:00,57.6,54.3,29.86,East,90,3.8,7.6,89,0.01,,,0.24,,pywws,2013-08-23 22:07:00,
2013-08-23 23:12:00,57.4,54.2,29.86,South,180,1.6,4.5,89,0.01,,,0.24,0.00,pywws,2013-08-23 22:12:00,
2013-08-23 23:17:00,57.4,54.2,29.86,South,180,1.6,4.5,89,0.01,,,0.24,0.00,pywws,2013-08-23 22:17:00,
2013-08-23 23:35:00,56.8,54.5,29.85,NNE,22,2.2,4.5,92,0.01,,,0.24,0.00,pywws,2013-08-23 22:35:00,
2013-08-23 23:41:00,56.8,54.5,29.85,NNE,22,2.2,4.5,92,0.01,,,0.24,0.00,pywws,2013-08-23 22:41:00,